Time;durP1;ratioP1;P1;durP2;ratioP2;P2;SDS_P1;SDS_P2;PMS_P1;PMS_P2;Temp;Humidity;BMP_temperature;BMP_pressure;BME280_temperature;BME280_humidity;BME280_pressure;Samples;Min_cycle;Max_cycle;Signal;HPM_P1;HPM_P2
2022/04/14 00:00:19;;;;;;;1.20;0.83;;;24.00;46.10;;;;;;5038132;28;89096;-66
2022/04/14 00:02:47;;;;;;;1.30;1.10;;;24.00;45.50;;;;;;5040360;27;88716;-66
2022/04/14 00:05:15;;;;;;;3.73;1.37;;;24.00;45.50;;;;;;5040858;27;90041;-67
2022/04/14 00:07:44;;;;;;;1.33;1.10;;;24.00;45.50;;;;;;5040598;28;90217;-67
2022/04/14 00:10:12;;;;;;;0.63;0.63;;;24.00;45.50;;;;;;5040797;28;89257;-66
2022/04/14 00:12:42;;;;;;;3.30;0.90;;;24.00;45.50;;;;;;5040321;27;88653;-67
2022/04/14 00:15:11;;;;;;;4.03;1.00;;;24.00;45.40;;;;;;5040269;27;91067;-67
2022/04/14 00:17:38;;;;;;;1.30;1.00;;;24.00;45.50;;;;;;5040841;28;88812;-67
2022/04/14 00:20:08;;;;;;;1.20;1.10;;;24.00;45.40;;;;;;5040568;28;88838;-67
2022/04/14 00:22:36;;;;;;;1.30;1.03;;;24.00;45.40;;;;;;5041290;27;88488;-66
2022/04/14 00:25:05;;;;;;;2.70;1.20;;;24.00;45.40;;;;;;5039801;28;90709;-67
2022/04/14 00:27:33;;;;;;;1.37;0.90;;;24.00;45.30;;;;;;5040288;27;89190;-66
2022/04/14 00:30:02;;;;;;;1.27;1.10;;;24.00;45.30;;;;;;5040274;28;89269;-66
2022/04/14 00:32:31;;;;;;;2.40;1.20;;;24.00;45.30;;;;;;5046720;27;88680;-66
2022/04/14 00:34:59;;;;;;;1.27;1.03;;;24.00;45.30;;;;;;5040023;28;90780;-66
2022/04/14 00:37:27;;;;;;;1.13;1.03;;;24.00;45.30;;;;;;5040106;28;89572;-66
2022/04/14 00:39:56;;;;;;;1.27;1.00;;;24.00;45.30;;;;;;5040279;28;88810;-66
2022/04/14 00:42:25;;;;;;;1.20;1.10;;;24.00;45.30;;;;;;5040372;27;88670;-66
2022/04/14 00:44:53;;;;;;;1.13;1.03;;;24.00;45.30;;;;;;5039517;27;89685;-66
2022/04/14 00:47:23;;;;;;;1.20;0.90;;;23.90;45.30;;;;;;5040212;28;91011;-66
2022/04/14 00:49:51;;;;;;;2.43;1.10;;;23.90;45.20;;;;;;5040150;28;89132;-67
2022/04/14 00:52:21;;;;;;;1.53;0.87;;;23.90;45.20;;;;;;5039284;27;88620;-66
2022/04/14 00:54:49;;;;;;;1.20;1.10;;;23.90;45.20;;;;;;5040579;28;90334;-66
2022/04/14 00:57:17;;;;;;;0.93;0.83;;;23.90;45.20;;;;;;5040025;28;90305;-66
2022/04/14 00:59:45;;;;;;;2.27;0.83;;;23.90;45.20;;;;;;5036166;28;89818;-66
2022/04/14 01:02:13;;;;;;;1.27;0.90;;;23.90;45.30;;;;;;5037443;28;88403;-66
2022/04/14 01:04:43;;;;;;;2.27;1.30;;;23.90;45.80;;;;;;5039822;28;92738;-66
2022/04/14 01:07:11;;;;;;;0.97;0.70;;;23.90;45.20;;;;;;5038897;28;91233;-67
2022/04/14 01:09:39;;;;;;;1.23;1.00;;;23.90;45.20;;;;;;5039928;27;88868;-68
2022/04/14 01:12:08;;;;;;;2.13;1.17;;;23.90;45.20;;;;;;5039884;27;88633;-67
2022/04/14 01:14:37;;;;;;;1.87;1.13;;;23.90;45.20;;;;;;5049518;27;88411;-67
2022/04/14 01:17:06;;;;;;;3.07;1.00;;;23.80;45.10;;;;;;5039924;28;90145;-67
2022/04/14 01:19:34;;;;;;;1.60;0.80;;;23.80;45.10;;;;;;5040388;28;91336;-66
2022/04/14 01:22:07;;;;;;;1.47;1.00;;;23.80;45.10;;;;;;5039502;28;88476;-67
2022/04/14 01:24:37;;;;;;;1.57;0.70;;;23.80;45.10;;;;;;5039009;28;90760;-66
2022/04/14 01:27:05;;;;;;;2.13;1.40;;;23.80;45.10;;;;;;5039274;27;92141;-67
2022/04/14 01:29:33;;;;;;;2.50;1.60;;;23.60;45.40;;;;;;5052349;27;88492;-67
2022/04/14 01:32:02;;;;;;;1.00;0.90;;;24.00;45.20;;;;;;5052252;27;88540;-67
2022/04/14 01:34:31;;;;;;;1.97;1.10;;;24.00;45.00;;;;;;5019561;28;90671;-67
2022/04/14 01:37:00;;;;;;;1.37;1.10;;;24.10;45.00;;;;;;5019742;28;92423;-66
2022/04/14 01:39:28;;;;;;;1.23;1.00;;;24.00;44.90;;;;;;5023616;28;88890;-67
2022/04/14 01:41:57;;;;;;;1.47;1.10;;;24.00;44.90;;;;;;5040444;27;88188;-66
2022/04/14 01:44:25;;;;;;;1.63;0.83;;;24.00;45.00;;;;;;5040040;28;90730;-66
2022/04/14 01:46:53;;;;;;;2.20;1.10;;;24.00;45.00;;;;;;5039322;27;88427;-67
2022/04/14 01:49:21;;;;;;;5.10;1.37;;;23.90;45.00;;;;;;5040140;27;88697;-66
2022/04/14 01:51:49;;;;;;;0.87;0.80;;;23.90;45.00;;;;;;5039984;28;88814;-66
2022/04/14 01:54:17;;;;;;;1.90;1.17;;;23.80;45.00;;;;;;5039983;28;90857;-66
2022/04/14 01:56:46;;;;;;;2.33;1.50;;;23.80;45.00;;;;;;5039641;28;89849;-66
2022/04/14 01:59:15;;;;;;;1.63;1.43;;;23.80;45.00;;;;;;5040028;28;88392;-67
2022/04/14 02:01:43;;;;;;;1.20;1.10;;;23.80;45.00;;;;;;5040302;28;88483;-69
2022/04/14 02:04:11;;;;;;;2.07;1.03;;;23.80;45.00;;;;;;5039471;27;91487;-69
2022/04/14 02:06:39;;;;;;;2.30;1.10;;;23.80;45.00;;;;;;5041164;27;90113;-67
2022/04/14 02:09:07;;;;;;;2.20;1.07;;;23.80;45.00;;;;;;5040172;27;88973;-66
2022/04/14 02:11:35;;;;;;;1.53;1.00;;;23.70;45.00;;;;;;5041303;28;88393;-67
2022/04/14 02:14:04;;;;;;;1.20;1.10;;;23.70;45.00;;;;;;5039615;27;90746;-67
2022/04/14 02:16:33;;;;;;;1.10;0.87;;;23.70;45.00;;;;;;5039835;28;93377;-67
2022/04/14 02:19:01;;;;;;;1.07;1.00;;;23.70;45.00;;;;;;5040206;27;88360;-69
2022/04/14 02:21:29;;;;;;;3.43;1.20;;;23.70;45.00;;;;;;5039343;28;88384;-68
2022/04/14 02:23:57;;;;;;;2.90;1.53;;;23.70;45.00;;;;;;5040335;28;90583;-67
2022/04/14 02:26:25;;;;;;;1.07;0.97;;;23.70;45.00;;;;;;5042241;28;89734;-67
2022/04/14 02:28:54;;;;;;;2.77;1.03;;;23.70;45.00;;;;;;5043649;28;88355;-67
2022/04/14 02:31:22;;;;;;;1.40;1.30;;;23.70;45.00;;;;;;5042778;28;88513;-66
2022/04/14 02:33:52;;;;;;;3.53;1.50;;;23.60;44.90;;;;;;5042195;27;90038;-66
2022/04/14 02:36:20;;;;;;;1.63;1.40;;;23.60;44.90;;;;;;5021840;28;90955;-66
2022/04/14 02:38:48;;;;;;;3.33;1.53;;;23.60;44.90;;;;;;5038901;28;88914;-67
2022/04/14 02:41:16;;;;;;;1.40;1.20;;;23.70;45.00;;;;;;5042616;28;88472;-66
2022/04/14 02:43:43;;;;;;;1.40;1.03;;;23.70;45.00;;;;;;5042263;28;90780;-66
2022/04/14 02:46:12;;;;;;;2.07;1.33;;;23.60;44.90;;;;;;5042544;27;89083;-66
2022/04/14 02:48:40;;;;;;;1.80;1.50;;;23.60;44.90;;;;;;5042664;28;88819;-67
2022/04/14 02:51:09;;;;;;;1.60;1.10;;;23.70;44.90;;;;;;5042620;27;88521;-66
2022/04/14 02:53:37;;;;;;;2.30;0.90;;;23.60;44.90;;;;;;5042874;28;93675;-67
2022/04/14 02:56:06;;;;;;;1.50;1.10;;;23.70;44.90;;;;;;5042199;28;88990;-67
2022/04/14 02:58:34;;;;;;;1.23;1.10;;;23.60;44.80;;;;;;5037328;28;88858;-66
2022/04/14 03:01:02;;;;;;;1.17;1.07;;;23.50;45.00;;;;;;5042632;28;88467;-67
2022/04/14 03:03:30;;;;;;;1.50;1.20;;;23.60;44.90;;;;;;5041965;27;93464;-67
2022/04/14 03:05:58;;;;;;;1.37;1.00;;;23.70;44.80;;;;;;5041088;28;90103;-67
2022/04/14 03:08:28;;;;;;;1.67;1.00;;;23.70;44.80;;;;;;5042486;27;89882;-67
2022/04/14 03:10:56;;;;;;;1.57;0.90;;;23.60;44.70;;;;;;5041978;27;88636;-67
2022/04/14 03:13:24;;;;;;;4.60;1.53;;;23.60;44.80;;;;;;5042302;28;88854;-66
2022/04/14 03:15:52;;;;;;;1.17;0.93;;;23.60;44.80;;;;;;5041748;28;92432;-66
2022/04/14 03:18:21;;;;;;;2.80;1.20;;;23.60;44.80;;;;;;5042228;28;91009;-66
2022/04/14 03:20:49;;;;;;;2.30;1.03;;;23.60;44.90;;;;;;5042207;28;88531;-67
2022/04/14 03:23:18;;;;;;;1.33;1.23;;;23.60;44.90;;;;;;5042492;28;89250;-67
2022/04/14 03:25:48;;;;;;;2.73;1.20;;;23.60;44.90;;;;;;5041970;28;89478;-66
2022/04/14 03:28:16;;;;;;;1.30;1.17;;;23.50;44.80;;;;;;5041695;28;89403;-66
2022/04/14 03:30:45;;;;;;;1.70;1.10;;;23.50;44.80;;;;;;5041366;28;88413;-67
2022/04/14 03:33:13;;;;;;;1.20;1.07;;;23.50;44.80;;;;;;5041485;28;90886;-67
2022/04/14 03:35:41;;;;;;;1.50;1.10;;;23.50;44.80;;;;;;5041574;27;88806;-67
2022/04/14 03:38:09;;;;;;;1.03;0.90;;;23.50;44.90;;;;;;5040873;27;90236;-66
2022/04/14 03:40:59;;;;;;;1.50;1.20;;;23.50;44.80;;;;;;5040942;27;88618;-66
2022/04/14 03:43:27;;;;;;;1.10;0.80;;;23.50;44.80;;;;;;5041365;27;89770;-67
2022/04/14 03:45:55;;;;;;;1.03;0.90;;;23.50;44.80;;;;;;5041480;27;91071;-67
2022/04/14 03:48:23;;;;;;;2.20;1.30;;;23.50;44.90;;;;;;5041512;28;88499;-68
2022/04/14 03:50:51;;;;;;;1.73;0.90;;;23.50;44.80;;;;;;5046702;27;88440;-68
2022/04/14 03:53:19;;;;;;;2.10;1.27;;;23.50;44.90;;;;;;5040325;27;90621;-69
2022/04/14 03:55:47;;;;;;;0.90;0.90;;;23.50;44.80;;;;;;5042671;27;91497;-69
2022/04/14 03:58:16;;;;;;;2.00;1.40;;;23.50;44.80;;;;;;5038186;28;88492;-69
2022/04/14 04:00:45;;;;;;;2.13;1.40;;;23.50;44.80;;;;;;5032647;28;89002;-68
2022/04/14 04:03:13;;;;;;;1.80;1.10;;;23.50;44.80;;;;;;5041135;28;92926;-69
2022/04/14 04:05:41;;;;;;;1.03;0.80;;;23.50;44.80;;;;;;5040476;27;90923;-68
2022/04/14 04:08:09;;;;;;;1.77;1.20;;;23.50;44.80;;;;;;5041731;28;88355;-69
2022/04/14 04:10:37;;;;;;;1.70;1.27;;;23.50;44.80;;;;;;5040720;28;88431;-69
2022/04/14 04:13:05;;;;;;;1.97;1.10;;;23.40;44.70;;;;;;5040484;28;90627;-69
2022/04/14 04:15:36;;;;;;;1.33;1.10;;;23.50;44.80;;;;;;5040641;28;88758;-67
2022/04/14 04:18:04;;;;;;;0.80;0.80;;;23.40;44.80;;;;;;5040427;28;90026;-67
2022/04/14 04:20:33;;;;;;;2.20;0.90;;;23.40;44.80;;;;;;5042271;27;88367;-67
2022/04/14 04:23:03;;;;;;;3.67;1.60;;;23.40;44.80;;;;;;5040050;27;90005;-66
2022/04/14 04:25:32;;;;;;;3.50;1.30;;;23.40;44.80;;;;;;5040516;27;89927;-66
2022/04/14 04:28:00;;;;;;;4.47;1.30;;;23.40;44.70;;;;;;5040872;27;88194;-67
2022/04/14 04:30:28;;;;;;;3.70;1.20;;;23.30;44.60;;;;;;5041449;27;88518;-66
2022/04/14 04:32:57;;;;;;;1.17;0.90;;;23.40;44.80;;;;;;5040452;28;92748;-70
2022/04/14 04:35:26;;;;;;;3.23;1.10;;;23.30;44.70;;;;;;5040854;27;89986;-69
2022/04/14 04:37:54;;;;;;;2.53;1.20;;;23.30;44.70;;;;;;5040711;27;88411;-69
2022/04/14 04:40:22;;;;;;;1.57;1.10;;;23.30;44.70;;;;;;5040104;28;88470;-70
2022/04/14 04:42:50;;;;;;;3.20;1.37;;;23.30;44.70;;;;;;5040284;27;89728;-70
2022/04/14 04:45:18;;;;;;;2.10;1.30;;;23.30;44.70;;;;;;5039837;27;90074;-70
2022/04/14 04:47:46;;;;;;;2.20;1.20;;;23.30;44.60;;;;;;5040424;27;88500;-69
2022/04/14 04:50:17;;;;;;;2.33;1.10;;;23.30;44.70;;;;;;5040766;28;88586;-69
2022/04/14 04:52:45;;;;;;;1.37;1.10;;;23.30;44.70;;;;;;5036691;27;93302;-70
2022/04/14 04:55:13;;;;;;;0.83;0.80;;;23.30;44.60;;;;;;5035327;27;91584;-70
2022/04/14 04:57:41;;;;;;;2.67;1.23;;;23.30;44.70;;;;;;5039729;27;88505;-69
2022/04/14 05:00:11;;;;;;;2.53;1.13;;;23.30;44.70;;;;;;5045333;27;88364;-69
2022/04/14 05:02:39;;;;;;;1.43;1.33;;;23.30;44.70;;;;;;5040366;27;90160;-69
2022/04/14 05:05:07;;;;;;;2.97;1.10;;;23.30;45.30;;;;;;5039705;27;92896;-69
2022/04/14 05:07:37;;;;;;;2.10;1.50;;;23.30;44.70;;;;;;5038832;27;90494;-69
2022/04/14 05:10:05;;;;;;;3.67;1.20;;;23.30;44.60;;;;;;5038998;27;88623;-69
2022/04/14 05:12:34;;;;;;;3.00;1.57;;;23.30;44.70;;;;;;5039043;27;89521;-68
2022/04/14 05:15:01;;;;;;;2.10;1.53;;;23.30;44.60;;;;;;5039980;27;89364;-68
2022/04/14 05:17:29;;;;;;;1.83;1.40;;;23.30;44.60;;;;;;5039287;28;89008;-69
2022/04/14 05:19:57;;;;;;;2.70;1.27;;;23.40;44.60;;;;;;5049151;27;88420;-69
2022/04/14 05:22:25;;;;;;;1.80;1.37;;;23.40;44.60;;;;;;5060051;27;89668;-69
2022/04/14 05:24:55;;;;;;;2.60;1.03;;;23.40;44.40;;;;;;5044969;27;89331;-70
2022/04/14 05:27:22;;;;;;;4.40;1.20;;;23.40;44.40;;;;;;5039728;28;88509;-69
2022/04/14 05:29:50;;;;;;;1.47;1.20;;;23.40;44.40;;;;;;5039772;27;88641;-69
2022/04/14 05:32:21;;;;;;;2.67;1.30;;;23.50;44.50;;;;;;5039720;27;90739;-69
2022/04/14 05:34:49;;;;;;;3.03;1.50;;;23.50;44.40;;;;;;5036515;28;90313;-70
2022/04/14 05:37:17;;;;;;;2.93;1.23;;;23.50;44.40;;;;;;5038976;28;89267;-70
2022/04/14 05:39:46;;;;;;;2.53;1.07;;;23.50;44.40;;;;;;5039903;28;88405;-69
2022/04/14 05:42:15;;;;;;;2.60;1.23;;;23.50;44.40;;;;;;5039563;28;90567;-70
2022/04/14 05:44:43;;;;;;;2.53;1.27;;;23.20;44.10;;;;;;5040154;28;88506;-70
2022/04/14 05:47:11;;;;;;;1.93;1.30;;;23.50;44.30;;;;;;5040003;28;88432;-69
2022/04/14 05:49:39;;;;;;;2.90;1.50;;;23.50;44.30;;;;;;5039927;28;88604;-69
2022/04/14 05:52:08;;;;;;;3.00;1.10;;;23.60;44.30;;;;;;5039632;28;90789;-69
2022/04/14 05:54:36;;;;;;;4.97;1.63;;;23.60;44.30;;;;;;5039547;28;88870;-68
2022/04/14 05:57:05;;;;;;;2.20;1.37;;;23.60;44.20;;;;;;5039104;28;88558;-69
2022/04/14 05:59:34;;;;;;;1.50;1.20;;;23.60;44.20;;;;;;5039380;27;88704;-69
2022/04/14 06:02:03;;;;;;;1.30;1.20;;;23.60;44.20;;;;;;5042790;28;90474;-69
2022/04/14 06:04:31;;;;;;;2.23;1.30;;;23.60;44.20;;;;;;5043193;27;88764;-69
2022/04/14 06:06:59;;;;;;;1.03;1.00;;;23.60;44.20;;;;;;5041870;27;90180;-69
2022/04/14 06:09:27;;;;;;;1.50;1.30;;;23.60;44.20;;;;;;5042938;28;89502;-69
2022/04/14 06:11:55;;;;;;;2.60;1.60;;;23.70;44.20;;;;;;5043193;27;89987;-69
2022/04/14 06:14:25;;;;;;;5.57;1.50;;;23.60;44.10;;;;;;5043381;28;90284;-69
2022/04/14 06:16:54;;;;;;;2.40;1.63;;;23.70;44.20;;;;;;5042083;28;88782;-69
2022/04/14 06:19:22;;;;;;;4.93;1.57;;;23.60;44.10;;;;;;5043022;27;88396;-68
2022/04/14 06:21:50;;;;;;;4.37;1.40;;;23.70;44.10;;;;;;5042856;28;90177;-70
2022/04/14 06:24:18;;;;;;;1.50;1.10;;;23.70;44.20;;;;;;5042858;28;89983;-69
2022/04/14 06:26:46;;;;;;;2.57;1.30;;;23.70;44.10;;;;;;5041891;27;88266;-69
2022/04/14 06:29:14;;;;;;;2.13;1.10;;;23.70;44.10;;;;;;5046434;27;88657;-69
2022/04/14 06:31:42;;;;;;;1.93;1.60;;;23.70;44.10;;;;;;5041629;28;90673;-69
2022/04/14 06:34:12;;;;;;;1.50;1.40;;;23.70;44.00;;;;;;5046964;27;89913;-69
2022/04/14 06:36:40;;;;;;;2.60;1.30;;;23.70;44.00;;;;;;5043217;28;88211;-68
2022/04/14 06:39:12;;;;;;;2.40;1.77;;;23.80;44.10;;;;;;5041669;27;88446;-67
2022/04/14 06:41:40;;;;;;;1.80;1.27;;;23.80;44.20;;;;;;5042645;28;90673;-69
2022/04/14 06:44:08;;;;;;;2.57;1.37;;;23.80;44.20;;;;;;5042483;28;88819;-69
2022/04/14 06:46:36;;;;;;;7.00;2.37;;;23.80;44.20;;;;;;5041536;27;88871;-68
2022/04/14 06:49:05;;;;;;;4.97;2.40;;;23.80;44.20;;;;;;5042117;27;89354;-67
2022/04/14 06:51:35;;;;;;;5.10;2.63;;;23.80;44.20;;;;;;5042269;27;91857;-66
2022/04/14 06:54:03;;;;;;;5.00;3.27;;;23.70;44.20;;;;;;5022097;28;88819;-66
2022/04/14 06:56:31;;;;;;;9.67;3.00;;;23.60;44.20;;;;;;5027866;28;88783;-66
2022/04/14 06:58:59;;;;;;;4.93;3.07;;;23.60;44.30;;;;;;5042554;28;88370;-68
2022/04/14 07:01:27;;;;;;;7.87;3.60;;;23.60;44.30;;;;;;5040991;27;89695;-66
2022/04/14 07:03:56;;;;;;;5.13;3.30;;;23.60;44.30;;;;;;5041631;28;89965;-65
2022/04/14 07:06:24;;;;;;;4.30;2.93;;;23.60;44.30;;;;;;5040594;28;88793;-66
2022/04/14 07:08:53;;;;;;;4.90;3.00;;;23.60;44.30;;;;;;5042118;27;88614;-65
2022/04/14 07:11:21;;;;;;;8.53;3.00;;;23.50;44.40;;;;;;5041408;27;90722;-65
2022/04/14 07:13:49;;;;;;;6.73;3.57;;;23.50;44.40;;;;;;5040916;27;89114;-66
2022/04/14 07:16:17;;;;;;;7.57;3.10;;;23.50;44.50;;;;;;5042276;28;88171;-71
2022/04/14 07:18:45;;;;;;;7.50;3.03;;;23.40;44.60;;;;;;5041606;27;88314;-72
2022/04/14 07:21:13;;;;;;;7.40;3.27;;;23.40;44.70;;;;;;5042047;28;94014;-68
2022/04/14 07:23:41;;;;;;;5.40;2.83;;;23.30;44.80;;;;;;5041931;28;90109;-69
2022/04/14 07:26:11;;;;;;;4.73;3.03;;;23.30;45.20;;;;;;5042733;28;88325;-71
2022/04/14 07:28:39;;;;;;;6.00;2.97;;;23.20;45.20;;;;;;5041104;28;88744;-69
2022/04/14 07:31:07;;;;;;;6.13;3.43;;;23.20;45.40;;;;;;5041002;28;93988;-70
2022/04/14 07:33:36;;;;;;;7.17;2.80;;;23.20;45.50;;;;;;5041389;27;89129;-68
2022/04/14 07:36:05;;;;;;;4.40;3.17;;;23.20;45.60;;;;;;5041645;27;89406;-67
2022/04/14 07:38:53;;;;;;;5.23;2.73;;;23.20;45.70;;;;;;5040647;27;88663;-68
2022/04/14 07:41:22;;;;;;;4.53;2.40;;;23.20;45.80;;;;;;5049255;27;89868;-66
2022/04/14 07:43:50;;;;;;;9.30;3.73;;;23.20;46.00;;;;;;5041463;27;90087;-68
2022/04/14 07:46:18;;;;;;;5.20;3.20;;;23.30;46.20;;;;;;5050345;27;88526;-67
2022/04/14 07:48:46;;;;;;;7.80;3.87;;;23.30;46.20;;;;;;5044311;27;88652;-67
2022/04/14 07:51:14;;;;;;;5.80;3.90;;;23.50;46.40;;;;;;5041276;28;89577;-67
2022/04/14 07:53:42;;;;;;;8.27;5.17;;;23.50;46.50;;;;;;5041311;28;91881;-68
2022/04/14 07:56:11;;;;;;;8.80;4.10;;;23.60;46.80;;;;;;5041969;27;88331;-69
2022/04/14 07:58:43;;;;;;;7.60;4.43;;;23.60;47.00;;;;;;5041506;28;88380;-67
2022/04/14 08:01:11;;;;;;;7.43;4.70;;;23.80;47.30;;;;;;5041478;28;91791;-67
2022/04/14 08:03:40;;;;;;;10.17;6.37;;;23.80;47.40;;;;;;5041401;28;88737;-69
2022/04/14 08:06:08;;;;;;;14.83;5.07;;;23.80;47.40;;;;;;5041088;28;88539;-69
2022/04/14 08:08:36;;;;;;;7.57;4.70;;;23.80;47.50;;;;;;5041390;28;90209;-69
2022/04/14 08:11:04;;;;;;;8.33;4.23;;;23.80;47.40;;;;;;5041302;27;89443;-67
2022/04/14 08:13:38;;;;;;;4.57;3.57;;;23.80;47.40;;;;;;5041597;28;89814;-68
2022/04/14 08:16:11;;;;;;;6.77;3.90;;;23.70;47.30;;;;;;5041022;27;88740;-67
2022/04/14 08:18:40;;;;;;;6.60;3.83;;;23.70;47.30;;;;;;5041189;28;88456;-68
2022/04/14 08:21:08;;;;;;;5.53;3.30;;;23.70;47.30;;;;;;5044993;27;89501;-69
2022/04/14 08:23:39;;;;;;;6.13;3.00;;;23.60;47.10;;;;;;5060295;27;92644;-68
2022/04/14 08:26:11;;;;;;;3.70;2.50;;;23.60;47.10;;;;;;5060579;27;92812;-68
2022/04/14 08:28:46;;;;;;;3.27;2.73;;;23.50;47.10;;;;;;5021194;28;88289;-68
2022/04/14 08:31:16;;;;;;;5.77;2.60;;;23.50;47.00;;;;;;5040292;27;89736;-69
2022/04/14 08:33:46;;;;;;;3.43;2.50;;;23.40;46.90;;;;;;5047767;27;91406;-69
2022/04/14 08:36:15;;;;;;;4.27;2.70;;;23.40;46.90;;;;;;5044244;27;89139;-69
2022/04/14 08:38:44;;;;;;;4.27;2.53;;;23.30;46.80;;;;;;5039551;28;88532;-68
2022/04/14 08:41:14;;;;;;;7.90;2.60;;;23.30;46.80;;;;;;5040828;27;92125;-69
2022/04/14 08:43:49;;;;;;;5.07;2.60;;;23.30;46.70;;;;;;5040599;28;91774;-68
2022/04/14 08:46:19;;;;;;;5.57;2.20;;;23.30;46.70;;;;;;5039847;27;88520;-68
2022/04/14 08:48:50;;;;;;;5.37;2.83;;;23.30;46.60;;;;;;5040671;27;88407;-68
2022/04/14 08:51:19;;;;;;;4.90;2.53;;;23.20;46.60;;;;;;5039792;27;91067;-69
2022/04/14 08:53:47;;;;;;;2.30;2.10;;;23.30;46.60;;;;;;5040492;28;88874;-69
2022/04/14 08:56:19;;;;;;;4.17;2.13;;;23.30;46.60;;;;;;5041064;28;88206;-70
2022/04/14 08:58:47;;;;;;;11.70;2.57;;;23.30;46.50;;;;;;5040206;28;88399;-70
2022/04/14 09:01:15;;;;;;;6.33;2.30;;;23.30;46.50;;;;;;5039163;27;91096;-68
2022/04/14 09:03:56;;;;;;;5.33;1.93;;;23.30;46.50;;;;;;5039011;27;88532;-68
2022/04/14 09:06:27;;;;;;;2.80;1.57;;;23.30;46.50;;;;;;5040350;28;88800;-67
2022/04/14 09:08:57;;;;;;;3.10;1.97;;;23.30;46.60;;;;;;5040689;28;88427;-68
2022/04/14 09:11:25;;;;;;;3.90;1.97;;;23.30;46.60;;;;;;5039908;28;90921;-67
2022/04/14 09:13:54;;;;;;;2.83;1.90;;;23.40;46.80;;;;;;5040052;27;90042;-68
2022/04/14 09:16:23;;;;;;;9.50;1.90;;;23.50;47.00;;;;;;5039145;27;88731;-71
2022/04/14 09:18:53;;;;;;;5.43;2.23;;;23.50;47.10;;;;;;5038813;27;88574;-68
2022/04/14 09:21:22;;;;;;;3.20;1.83;;;23.50;47.20;;;;;;5039590;28;93859;-67
2022/04/14 09:23:51;;;;;;;3.07;1.50;;;23.50;47.20;;;;;;5040372;28;88889;-67
2022/04/14 09:26:23;;;;;;;2.00;1.53;;;23.50;47.30;;;;;;5039846;28;89659;-68
2022/04/14 09:29:03;;;;;;;2.57;1.90;;;23.60;48.00;;;;;;5040137;27;88460;-67
2022/04/14 09:31:31;;;;;;;4.80;1.60;;;23.60;48.10;;;;;;5039452;28;90590;-67
2022/04/14 09:33:59;;;;;;;3.83;1.60;;;23.60;47.40;;;;;;5040177;27;90102;-67
2022/04/14 09:36:30;;;;;;;1.67;1.00;;;23.60;47.50;;;;;;5038449;28;88427;-68
2022/04/14 09:38:59;;;;;;;6.07;1.67;;;23.60;48.30;;;;;;5039389;28;88499;-69
2022/04/14 09:41:35;;;;;;;4.30;1.63;;;23.60;47.70;;;;;;5038928;28;90669;-69
2022/04/14 09:44:06;;;;;;;1.20;1.10;;;23.60;47.80;;;;;;5029571;28;90500;-69
2022/04/14 09:46:35;;;;;;;4.90;2.03;;;23.70;47.90;;;;;;5039338;28;88467;-70
2022/04/14 09:49:07;;;;;;;3.57;1.30;;;23.70;47.90;;;;;;5039762;27;88621;-70
2022/04/14 09:51:37;;;;;;;2.17;1.30;;;23.70;48.00;;;;;;5039471;27;90983;-69
2022/04/14 09:54:16;;;;;;;3.93;1.60;;;23.70;48.10;;;;;;5039875;28;91324;-71
2022/04/14 09:56:48;;;;;;;2.70;1.23;;;23.80;48.20;;;;;;5039506;27;88435;-71
2022/04/14 09:59:17;;;;;;;1.57;1.10;;;23.80;48.80;;;;;;5039990;27;88601;-71
2022/04/14 10:01:46;;;;;;;2.17;1.33;;;23.80;48.20;;;;;;5038807;27;89860;-69
2022/04/14 10:04:33;;;;;;;3.40;1.60;;;23.80;48.20;;;;;;5039506;28;89543;-70
2022/04/14 10:07:04;;;;;;;5.33;1.40;;;23.80;48.20;;;;;;5039016;27;89264;-69
2022/04/14 10:09:33;;;;;;;1.20;1.10;;;23.90;48.30;;;;;;5039596;28;88487;-69
2022/04/14 10:12:01;;;;;;;2.90;1.27;;;23.90;48.30;;;;;;5038118;27;89890;-69
2022/04/14 10:14:29;;;;;;;2.00;1.17;;;23.90;48.30;;;;;;5040851;27;89168;-69
2022/04/14 10:17:02;;;;;;;1.90;1.30;;;23.90;48.90;;;;;;5039552;28;90927;-70
2022/04/14 10:19:32;;;;;;;0.90;0.90;;;23.90;48.30;;;;;;5039649;28;88586;-69
2022/04/14 10:22:00;;;;;;;1.13;0.93;;;23.90;48.30;;;;;;5038870;28;90756;-70
2022/04/14 10:24:30;;;;;;;3.53;1.50;;;23.90;48.30;;;;;;5039945;27;88763;-69
2022/04/14 10:26:59;;;;;;;4.10;0.90;;;23.90;48.30;;;;;;5038605;27;88432;-70
2022/04/14 10:29:27;;;;;;;2.83;1.30;;;23.90;48.40;;;;;;5038925;28;88452;-71
2022/04/14 10:31:55;;;;;;;1.37;1.13;;;24.00;48.50;;;;;;5038027;28;92425;-70
2022/04/14 10:34:23;;;;;;;1.20;0.97;;;24.00;48.50;;;;;;5039114;27;90973;-69
2022/04/14 10:36:51;;;;;;;1.20;1.10;;;23.90;48.50;;;;;;5039071;27;88332;-69
2022/04/14 10:39:19;;;;;;;4.37;1.10;;;23.90;48.50;;;;;;5039756;27;88516;-70
2022/04/14 10:41:51;;;;;;;1.57;1.10;;;23.90;48.60;;;;;;5038896;27;93111;-69
2022/04/14 10:44:23;;;;;;;2.40;1.17;;;23.90;48.70;;;;;;5039063;27;90222;-69
2022/04/14 10:46:57;;;;;;;2.90;1.23;;;24.00;48.70;;;;;;5040916;27;88480;-68
2022/04/14 10:49:33;;;;;;;1.20;1.10;;;23.90;48.70;;;;;;5041762;27;88540;-68
2022/04/14 10:52:24;;;;;;;1.07;0.97;;;23.90;48.70;;;;;;5042329;27;89278;-69
2022/04/14 10:54:56;;;;;;;2.37;1.20;;;23.90;49.30;;;;;;5042185;28;89983;-69
2022/04/14 10:57:37;;;;;;;2.27;1.27;;;23.90;48.80;;;;;;5042508;28;88674;-68
2022/04/14 11:00:36;;;;;;;2.00;1.00;;;23.90;48.80;;;;;;5042311;27;88423;-68
2022/04/14 11:03:12;;;;;;;1.23;1.13;;;24.00;48.90;;;;;;5048898;27;89473;-68
2022/04/14 11:05:42;;;;;;;2.13;1.03;;;24.00;48.90;;;;;;5042138;28;90229;-69
2022/04/14 11:08:27;;;;;;;2.40;1.00;;;24.00;49.10;;;;;;5042054;28;88668;-69
2022/04/14 11:10:56;;;;;;;1.20;1.10;;;24.00;49.10;;;;;;5042102;27;88734;-68
2022/04/14 11:13:26;;;;;;;0.83;0.73;;;24.00;49.10;;;;;;5042264;27;91657;-68
2022/04/14 11:15:55;;;;;;;1.20;1.00;;;24.10;49.20;;;;;;5041186;27;89818;-68
2022/04/14 11:18:23;;;;;;;1.43;0.83;;;24.20;49.30;;;;;;5040170;27;88493;-68
2022/04/14 11:21:00;;;;;;;1.37;1.07;;;24.20;49.20;;;;;;5039012;27;88628;-69
2022/04/14 11:23:29;;;;;;;1.10;1.00;;;24.20;49.20;;;;;;5031606;27;92899;-68
2022/04/14 11:26:09;;;;;;;1.40;1.30;;;24.30;49.20;;;;;;5051270;27;88460;-68
2022/04/14 11:28:39;;;;;;;4.43;1.20;;;24.30;49.20;;;;;;5042672;28;88534;-68
2022/04/14 11:31:23;;;;;;;3.30;1.30;;;24.30;49.10;;;;;;5042158;27;88438;-68
2022/04/14 11:33:53;;;;;;;2.23;1.50;;;24.30;49.10;;;;;;5041783;28;91685;-68
2022/04/14 11:36:22;;;;;;;2.20;1.00;;;24.30;49.00;;;;;;5040370;28;89635;-68
2022/04/14 11:38:57;;;;;;;1.70;1.00;;;24.30;48.90;;;;;;5041862;28;91546;-68
2022/04/14 11:41:36;;;;;;;4.30;1.50;;;24.30;48.80;;;;;;5041881;28;88212;-68
2022/04/14 11:44:07;;;;;;;2.63;1.40;;;24.30;48.80;;;;;;5040631;27;88441;-68
2022/04/14 11:46:37;;;;;;;1.37;0.97;;;24.30;48.60;;;;;;5040674;28;90009;-69
2022/04/14 11:49:05;;;;;;;2.33;1.20;;;24.30;48.50;;;;;;5040895;28;91816;-68
2022/04/14 11:51:33;;;;;;;1.23;1.00;;;24.30;48.50;;;;;;5041494;28;88445;-68
2022/04/14 11:54:01;;;;;;;3.10;1.43;;;24.30;48.50;;;;;;5041658;27;89702;-69
2022/04/14 11:56:50;;;;;;;1.10;1.00;;;24.30;48.40;;;;;;5041835;28;89338;-68
2022/04/14 11:59:20;;;;;;;1.73;1.27;;;24.30;48.40;;;;;;5040652;27;88500;-68
2022/04/14 12:01:50;;;;;;;1.57;1.10;;;24.30;48.40;;;;;;5041094;27;88684;-68
2022/04/14 12:04:18;;;;;;;2.20;1.30;;;24.30;48.30;;;;;;5041591;27;92763;-69
2022/04/14 12:06:53;;;;;;;0.80;0.80;;;24.30;48.20;;;;;;5040492;27;91098;-69
2022/04/14 12:09:22;;;;;;;1.53;1.10;;;24.30;48.20;;;;;;5041247;28;88392;-68
2022/04/14 12:11:50;;;;;;;1.70;1.13;;;24.30;48.10;;;;;;5040057;27;88547;-68
2022/04/14 12:14:19;;;;;;;1.23;0.90;;;24.30;48.10;;;;;;5040746;28;90536;-68
2022/04/14 12:16:49;;;;;;;0.80;0.80;;;24.30;48.00;;;;;;5041151;27;88290;-68
2022/04/14 12:19:17;;;;;;;1.03;0.70;;;24.30;48.00;;;;;;5041096;27;90377;-68
2022/04/14 12:21:59;;;;;;;0.93;0.83;;;24.30;47.90;;;;;;5041381;28;88386;-68
2022/04/14 12:24:26;;;;;;;1.87;1.17;;;24.30;47.90;;;;;;5040404;28;90522;-68
2022/04/14 12:26:55;;;;;;;1.50;0.90;;;24.30;47.80;;;;;;5040255;28;90070;-68
2022/04/14 12:29:25;;;;;;;1.00;0.90;;;24.30;47.80;;;;;;5040954;28;90637;-68
2022/04/14 12:31:56;;;;;;;1.00;0.90;;;24.30;47.70;;;;;;5041165;27;88548;-68
2022/04/14 12:34:24;;;;;;;2.20;1.17;;;24.30;47.60;;;;;;5040730;28;90735;-68
2022/04/14 12:37:07;;;;;;;2.93;1.07;;;24.40;47.70;;;;;;5047058;27;90015;-68
2022/04/14 12:39:36;;;;;;;1.33;0.87;;;24.40;47.60;;;;;;5040761;27;90761;-70
2022/04/14 12:42:04;;;;;;;1.97;1.10;;;24.40;47.50;;;;;;5041185;27;88252;-69
2022/04/14 12:44:33;;;;;;;0.90;0.80;;;24.40;47.50;;;;;;5040199;27;89856;-68
2022/04/14 12:47:02;;;;;;;4.00;1.00;;;24.50;47.50;;;;;;5039288;27;90319;-69
2022/04/14 12:49:33;;;;;;;1.00;0.83;;;24.50;47.40;;;;;;5041033;28;88389;-68
2022/04/14 12:52:03;;;;;;;2.83;0.97;;;24.50;47.40;;;;;;5040853;28;88486;-68
2022/04/14 12:54:31;;;;;;;1.67;1.17;;;24.50;47.40;;;;;;5040348;27;89543;-67
2022/04/14 12:57:00;;;;;;;1.40;1.03;;;24.50;47.30;;;;;;5038694;28;88966;-68